sensor_id;sensor_type;location;lat;lon;timestamp;temperature;humidity
18898;DHT22;9581;49.484;8.556;2023-02-17T00:02:04;9.90;99.90
18898;DHT22;9581;49.484;8.556;2023-02-17T00:04:32;9.90;99.90
18898;DHT22;9581;49.484;8.556;2023-02-17T00:07:00;9.90;99.90
18898;DHT22;9581;49.484;8.556;2023-02-17T00:09:27;10.00;99.90
18898;DHT22;9581;49.484;8.556;2023-02-17T00:11:53;10.00;99.90
18898;DHT22;9581;49.484;8.556;2023-02-17T00:14:20;9.90;99.90
18898;DHT22;9581;49.484;8.556;2023-02-17T00:16:47;10.00;99.90
18898;DHT22;9581;49.484;8.556;2023-02-17T00:19:14;10.00;99.90
18898;DHT22;9581;49.484;8.556;2023-02-17T00:21:51;10.00;99.90
18898;DHT22;9581;49.484;8.556;2023-02-17T00:24:19;10.00;99.90
18898;DHT22;9581;49.484;8.556;2023-02-17T00:26:46;10.00;99.90
18898;DHT22;9581;49.484;8.556;2023-02-17T00:29:13;10.00;99.90
18898;DHT22;9581;49.484;8.556;2023-02-17T00:31:40;10.00;99.90
18898;DHT22;9581;49.484;8.556;2023-02-17T00:34:07;10.00;99.90
18898;DHT22;9581;49.484;8.556;2023-02-17T00:36:33;10.00;99.90
18898;DHT22;9581;49.484;8.556;2023-02-17T00:39:00;10.00;99.90
18898;DHT22;9581;49.484;8.556;2023-02-17T00:41:29;10.00;99.90
18898;DHT22;9581;49.484;8.556;2023-02-17T00:43:56;10.00;99.90
18898;DHT22;9581;49.484;8.556;2023-02-17T00:46:23;10.00;99.90
18898;DHT22;9581;49.484;8.556;2023-02-17T00:48:51;9.90;99.90
18898;DHT22;9581;49.484;8.556;2023-02-17T00:51:18;10.00;99.90
18898;DHT22;9581;49.484;8.556;2023-02-17T00:53:45;10.00;99.90
18898;DHT22;9581;49.484;8.556;2023-02-17T00:56:12;10.00;99.90
18898;DHT22;9581;49.484;8.556;2023-02-17T00:58:41;10.00;99.90
18898;DHT22;9581;49.484;8.556;2023-02-17T01:01:08;10.00;99.90
18898;DHT22;9581;49.484;8.556;2023-02-17T01:03:35;10.00;99.90
18898;DHT22;9581;49.484;8.556;2023-02-17T01:06:05;10.00;99.90
18898;DHT22;9581;49.484;8.556;2023-02-17T01:08:32;10.00;99.90
18898;DHT22;9581;49.484;8.556;2023-02-17T01:10:59;10.00;99.90
18898;DHT22;9581;49.484;8.556;2023-02-17T01:13:25;10.00;99.90
18898;DHT22;9581;49.484;8.556;2023-02-17T01:15:53;10.00;99.90
18898;DHT22;9581;49.484;8.556;2023-02-17T01:18:22;10.00;99.90
18898;DHT22;9581;49.484;8.556;2023-02-17T01:20:49;10.00;99.90
18898;DHT22;9581;49.484;8.556;2023-02-17T01:23:16;10.00;99.90
18898;DHT22;9581;49.484;8.556;2023-02-17T01:25:44;10.00;99.90
18898;DHT22;9581;49.484;8.556;2023-02-17T01:28:14;10.00;99.90
18898;DHT22;9581;49.484;8.556;2023-02-17T01:30:41;10.00;99.90
18898;DHT22;9581;49.484;8.556;2023-02-17T01:33:09;10.00;99.90
18898;DHT22;9581;49.484;8.556;2023-02-17T01:35:36;10.00;99.90
18898;DHT22;9581;49.484;8.556;2023-02-17T01:38:03;10.10;99.90
18898;DHT22;9581;49.484;8.556;2023-02-17T01:40:29;10.10;99.90
18898;DHT22;9581;49.484;8.556;2023-02-17T01:42:56;10.20;99.90
18898;DHT22;9581;49.484;8.556;2023-02-17T01:45:35;10.20;99.90
18898;DHT22;9581;49.484;8.556;2023-02-17T01:48:05;10.20;99.90
18898;DHT22;9581;49.484;8.556;2023-02-17T01:50:36;10.30;99.90
18898;DHT22;9581;49.484;8.556;2023-02-17T01:53:05;10.30;99.90
18898;DHT22;9581;49.484;8.556;2023-02-17T01:55:34;10.30;99.90
18898;DHT22;9581;49.484;8.556;2023-02-17T01:58:04;10.40;99.90
18898;DHT22;9581;49.484;8.556;2023-02-17T02:00:33;10.40;99.90
18898;DHT22;9581;49.484;8.556;2023-02-17T02:03:01;10.40;99.90
18898;DHT22;9581;49.484;8.556;2023-02-17T02:05:29;10.40;99.90
18898;DHT22;9581;49.484;8.556;2023-02-17T02:07:57;10.40;99.90
18898;DHT22;9581;49.484;8.556;2023-02-17T02:10:24;10.40;99.90
18898;DHT22;9581;49.484;8.556;2023-02-17T02:12:51;10.40;99.90
18898;DHT22;9581;49.484;8.556;2023-02-17T02:15:21;10.40;99.90
18898;DHT22;9581;49.484;8.556;2023-02-17T02:18:01;10.40;99.90
18898;DHT22;9581;49.484;8.556;2023-02-17T02:20:49;10.40;99.90
18898;DHT22;9581;49.484;8.556;2023-02-17T02:23:59;10.40;99.90
18898;DHT22;9581;49.484;8.556;2023-02-17T02:29:59;10.30;99.90
18898;DHT22;9581;49.484;8.556;2023-02-17T02:32:39;10.10;99.90
18898;DHT22;9581;49.484;8.556;2023-02-17T02:35:14;10.10;99.90
18898;DHT22;9581;49.484;8.556;2023-02-17T02:37:45;10.10;99.90
18898;DHT22;9581;49.484;8.556;2023-02-17T02:40:15;10.10;99.90
18898;DHT22;9581;49.484;8.556;2023-02-17T02:42:45;10.10;99.90
18898;DHT22;9581;49.484;8.556;2023-02-17T02:45:12;10.10;99.90
18898;DHT22;9581;49.484;8.556;2023-02-17T02:47:45;10.20;99.90
18898;DHT22;9581;49.484;8.556;2023-02-17T02:50:14;10.20;99.90
18898;DHT22;9581;49.484;8.556;2023-02-17T02:52:47;10.30;99.90
18898;DHT22;9581;49.484;8.556;2023-02-17T02:55:22;10.20;99.90
18898;DHT22;9581;49.484;8.556;2023-02-17T02:57:55;10.20;99.90
18898;DHT22;9581;49.484;8.556;2023-02-17T03:00:30;10.30;99.90
18898;DHT22;9581;49.484;8.556;2023-02-17T03:03:07;10.20;99.90
18898;DHT22;9581;49.484;8.556;2023-02-17T03:05:41;10.20;99.90
18898;DHT22;9581;49.484;8.556;2023-02-17T03:08:18;10.20;99.90
18898;DHT22;9581;49.484;8.556;2023-02-17T03:10:46;10.20;99.90
18898;DHT22;9581;49.484;8.556;2023-02-17T03:13:14;10.30;99.90
18898;DHT22;9581;49.484;8.556;2023-02-17T03:15:42;10.20;99.90
18898;DHT22;9581;49.484;8.556;2023-02-17T03:18:10;10.30;99.90
18898;DHT22;9581;49.484;8.556;2023-02-17T03:20:40;10.20;99.90
18898;DHT22;9581;49.484;8.556;2023-02-17T03:23:09;10.30;99.90
18898;DHT22;9581;49.484;8.556;2023-02-17T03:25:36;10.20;99.90
18898;DHT22;9581;49.484;8.556;2023-02-17T03:28:03;10.30;99.90
18898;DHT22;9581;49.484;8.556;2023-02-17T03:30:30;10.30;99.90
18898;DHT22;9581;49.484;8.556;2023-02-17T03:32:57;10.30;99.90
18898;DHT22;9581;49.484;8.556;2023-02-17T03:35:25;10.30;99.90
18898;DHT22;9581;49.484;8.556;2023-02-17T03:37:51;10.40;99.90
18898;DHT22;9581;49.484;8.556;2023-02-17T03:40:18;10.40;99.90
18898;DHT22;9581;49.484;8.556;2023-02-17T03:42:45;10.40;99.90
18898;DHT22;9581;49.484;8.556;2023-02-17T03:45:12;10.40;99.90
18898;DHT22;9581;49.484;8.556;2023-02-17T03:47:39;10.40;99.90
18898;DHT22;9581;49.484;8.556;2023-02-17T03:50:06;10.50;99.90
18898;DHT22;9581;49.484;8.556;2023-02-17T03:52:35;10.50;99.90
18898;DHT22;9581;49.484;8.556;2023-02-17T03:55:01;10.50;99.90
18898;DHT22;9581;49.484;8.556;2023-02-17T03:57:28;10.50;99.90
18898;DHT22;9581;49.484;8.556;2023-02-17T03:59:56;10.50;99.90
18898;DHT22;9581;49.484;8.556;2023-02-17T04:02:23;10.50;99.90
18898;DHT22;9581;49.484;8.556;2023-02-17T04:04:50;10.60;99.90
18898;DHT22;9581;49.484;8.556;2023-02-17T04:07:16;10.50;99.90
18898;DHT22;9581;49.484;8.556;2023-02-17T04:09:45;10.60;99.90
18898;DHT22;9581;49.484;8.556;2023-02-17T04:12:11;10.60;99.90
18898;DHT22;9581;49.484;8.556;2023-02-17T04:14:38;10.60;99.90
18898;DHT22;9581;49.484;8.556;2023-02-17T04:17:05;10.60;99.90
18898;DHT22;9581;49.484;8.556;2023-02-17T04:19:32;10.60;99.90
18898;DHT22;9581;49.484;8.556;2023-02-17T04:21:58;10.60;99.90
18898;DHT22;9581;49.484;8.556;2023-02-17T04:24:25;10.60;99.90
18898;DHT22;9581;49.484;8.556;2023-02-17T04:26:53;10.60;99.90
18898;DHT22;9581;49.484;8.556;2023-02-17T04:29:20;10.60;99.90
18898;DHT22;9581;49.484;8.556;2023-02-17T04:31:47;10.60;99.90
18898;DHT22;9581;49.484;8.556;2023-02-17T04:34:14;10.60;99.90
18898;DHT22;9581;49.484;8.556;2023-02-17T04:36:40;10.60;99.90
18898;DHT22;9581;49.484;8.556;2023-02-17T04:39:07;10.60;99.90
18898;DHT22;9581;49.484;8.556;2023-02-17T04:41:34;10.60;99.90
18898;DHT22;9581;49.484;8.556;2023-02-17T04:44:02;10.60;99.90
18898;DHT22;9581;49.484;8.556;2023-02-17T04:46:29;10.60;99.90
18898;DHT22;9581;49.484;8.556;2023-02-17T04:48:56;10.60;99.90
18898;DHT22;9581;49.484;8.556;2023-02-17T04:51:22;10.60;99.90
18898;DHT22;9581;49.484;8.556;2023-02-17T04:53:49;10.60;99.90
18898;DHT22;9581;49.484;8.556;2023-02-17T04:56:16;10.50;99.90
18898;DHT22;9581;49.484;8.556;2023-02-17T04:58:43;10.50;99.90
18898;DHT22;9581;49.484;8.556;2023-02-17T05:01:11;10.50;99.90
18898;DHT22;9581;49.484;8.556;2023-02-17T05:03:38;10.50;99.90
18898;DHT22;9581;49.484;8.556;2023-02-17T05:06:05;10.50;99.90
18898;DHT22;9581;49.484;8.556;2023-02-17T05:08:32;10.50;99.90
18898;DHT22;9581;49.484;8.556;2023-02-17T05:10:59;10.50;99.90
18898;DHT22;9581;49.484;8.556;2023-02-17T05:13:26;10.50;99.90
18898;DHT22;9581;49.484;8.556;2023-02-17T05:15:53;10.50;99.90
18898;DHT22;9581;49.484;8.556;2023-02-17T05:18:21;10.50;99.90
18898;DHT22;9581;49.484;8.556;2023-02-17T05:20:47;10.50;99.90
18898;DHT22;9581;49.484;8.556;2023-02-17T05:23:14;10.50;99.90
18898;DHT22;9581;49.484;8.556;2023-02-17T05:25:41;10.40;99.90
18898;DHT22;9581;49.484;8.556;2023-02-17T05:28:08;10.40;99.90
18898;DHT22;9581;49.484;8.556;2023-02-17T05:30:34;10.40;99.90
18898;DHT22;9581;49.484;8.556;2023-02-17T05:33:01;10.40;99.90
18898;DHT22;9581;49.484;8.556;2023-02-17T05:35:29;10.40;99.90
18898;DHT22;9581;49.484;8.556;2023-02-17T05:37:56;10.40;99.90
18898;DHT22;9581;49.484;8.556;2023-02-17T05:40:23;10.40;99.90
18898;DHT22;9581;49.484;8.556;2023-02-17T05:42:49;10.40;99.90
18898;DHT22;9581;49.484;8.556;2023-02-17T05:45:16;10.40;99.90
18898;DHT22;9581;49.484;8.556;2023-02-17T05:47:43;10.40;99.90
18898;DHT22;9581;49.484;8.556;2023-02-17T05:50:10;10.40;99.90
18898;DHT22;9581;49.484;8.556;2023-02-17T05:52:38;10.40;99.90
18898;DHT22;9581;49.484;8.556;2023-02-17T05:55:06;10.40;99.90
18898;DHT22;9581;49.484;8.556;2023-02-17T05:57:32;10.40;99.90
18898;DHT22;9581;49.484;8.556;2023-02-17T05:59:59;10.40;99.90
18898;DHT22;9581;49.484;8.556;2023-02-17T06:02:26;10.40;99.90
18898;DHT22;9581;49.484;8.556;2023-02-17T06:04:53;10.40;99.90
18898;DHT22;9581;49.484;8.556;2023-02-17T06:07:20;10.40;99.90
18898;DHT22;9581;49.484;8.556;2023-02-17T06:09:48;10.40;99.90
18898;DHT22;9581;49.484;8.556;2023-02-17T06:12:15;10.30;99.90
18898;DHT22;9581;49.484;8.556;2023-02-17T06:14:42;10.30;99.90
18898;DHT22;9581;49.484;8.556;2023-02-17T06:17:08;10.30;99.90
18898;DHT22;9581;49.484;8.556;2023-02-17T06:19:35;10.30;99.90
18898;DHT22;9581;49.484;8.556;2023-02-17T06:22:02;10.40;99.90
18898;DHT22;9581;49.484;8.556;2023-02-17T06:24:29;10.40;99.90
18898;DHT22;9581;49.484;8.556;2023-02-17T06:26:57;10.40;99.90
18898;DHT22;9581;49.484;8.556;2023-02-17T06:29:24;10.40;99.90
18898;DHT22;9581;49.484;8.556;2023-02-17T06:31:52;10.30;99.90
18898;DHT22;9581;49.484;8.556;2023-02-17T06:34:19;10.30;99.90
18898;DHT22;9581;49.484;8.556;2023-02-17T06:36:45;10.30;99.90
18898;DHT22;9581;49.484;8.556;2023-02-17T06:39:12;10.30;99.90
18898;DHT22;9581;49.484;8.556;2023-02-17T06:41:39;10.40;99.90
18898;DHT22;9581;49.484;8.556;2023-02-17T06:44:08;10.30;99.90
18898;DHT22;9581;49.484;8.556;2023-02-17T06:46:35;10.30;99.90
18898;DHT22;9581;49.484;8.556;2023-02-17T06:49:02;10.30;99.90
18898;DHT22;9581;49.484;8.556;2023-02-17T06:51:29;10.30;99.90
18898;DHT22;9581;49.484;8.556;2023-02-17T06:53:56;10.30;99.90
18898;DHT22;9581;49.484;8.556;2023-02-17T06:56:23;10.30;99.90
18898;DHT22;9581;49.484;8.556;2023-02-17T06:58:50;10.30;99.90
18898;DHT22;9581;49.484;8.556;2023-02-17T07:01:20;10.30;99.90
18898;DHT22;9581;49.484;8.556;2023-02-17T07:03:47;10.30;99.90
18898;DHT22;9581;49.484;8.556;2023-02-17T07:06:15;10.30;99.90
18898;DHT22;9581;49.484;8.556;2023-02-17T07:08:41;10.30;99.90
18898;DHT22;9581;49.484;8.556;2023-02-17T07:11:10;10.30;99.90
18898;DHT22;9581;49.484;8.556;2023-02-17T07:13:38;10.30;99.90
18898;DHT22;9581;49.484;8.556;2023-02-17T07:16:06;10.30;99.90
18898;DHT22;9581;49.484;8.556;2023-02-17T07:18:34;10.20;99.90
18898;DHT22;9581;49.484;8.556;2023-02-17T07:21:02;10.30;99.90
18898;DHT22;9581;49.484;8.556;2023-02-17T07:23:30;10.30;99.90
18898;DHT22;9581;49.484;8.556;2023-02-17T07:26:01;10.20;99.90
18898;DHT22;9581;49.484;8.556;2023-02-17T07:28:28;10.20;99.90
18898;DHT22;9581;49.484;8.556;2023-02-17T07:30:55;10.30;99.90
18898;DHT22;9581;49.484;8.556;2023-02-17T07:33:22;10.30;99.90
18898;DHT22;9581;49.484;8.556;2023-02-17T07:35:50;10.30;99.90
18898;DHT22;9581;49.484;8.556;2023-02-17T07:38:16;10.20;99.90
18898;DHT22;9581;49.484;8.556;2023-02-17T07:40:43;10.10;99.90
18898;DHT22;9581;49.484;8.556;2023-02-17T07:43:10;10.10;99.90
18898;DHT22;9581;49.484;8.556;2023-02-17T07:45:37;10.20;99.90
18898;DHT22;9581;49.484;8.556;2023-02-17T07:48:04;10.20;99.90
18898;DHT22;9581;49.484;8.556;2023-02-17T07:50:31;10.30;99.90
18898;DHT22;9581;49.484;8.556;2023-02-17T07:52:59;10.30;99.90
18898;DHT22;9581;49.484;8.556;2023-02-17T07:55:26;10.20;99.90
18898;DHT22;9581;49.484;8.556;2023-02-17T07:57:52;10.20;99.90
18898;DHT22;9581;49.484;8.556;2023-02-17T08:00:20;10.20;99.90
18898;DHT22;9581;49.484;8.556;2023-02-17T08:02:47;10.30;99.90
18898;DHT22;9581;49.484;8.556;2023-02-17T08:05:13;10.30;99.90
18898;DHT22;9581;49.484;8.556;2023-02-17T08:07:40;10.30;99.90
18898;DHT22;9581;49.484;8.556;2023-02-17T08:10:10;10.30;99.90
18898;DHT22;9581;49.484;8.556;2023-02-17T08:12:55;10.30;99.90
18898;DHT22;9581;49.484;8.556;2023-02-17T08:15:51;10.30;99.90
18898;DHT22;9581;49.484;8.556;2023-02-17T08:18:17;10.40;99.90
18898;DHT22;9581;49.484;8.556;2023-02-17T08:20:44;10.40;99.90
18898;DHT22;9581;49.484;8.556;2023-02-17T08:23:11;10.40;99.90
18898;DHT22;9581;49.484;8.556;2023-02-17T08:25:39;10.40;99.90
18898;DHT22;9581;49.484;8.556;2023-02-17T08:28:06;10.40;99.90
18898;DHT22;9581;49.484;8.556;2023-02-17T08:30:34;10.40;99.90
18898;DHT22;9581;49.484;8.556;2023-02-17T08:33:02;10.50;99.90
18898;DHT22;9581;49.484;8.556;2023-02-17T08:35:29;10.50;99.90
18898;DHT22;9581;49.484;8.556;2023-02-17T08:37:56;10.50;99.90
18898;DHT22;9581;49.484;8.556;2023-02-17T08:40:23;10.50;99.90
18898;DHT22;9581;49.484;8.556;2023-02-17T08:42:52;10.50;99.90
18898;DHT22;9581;49.484;8.556;2023-02-17T08:45:18;10.50;99.90
18898;DHT22;9581;49.484;8.556;2023-02-17T08:47:45;10.50;99.90
18898;DHT22;9581;49.484;8.556;2023-02-17T08:50:15;10.50;99.90
18898;DHT22;9581;49.484;8.556;2023-02-17T08:52:44;10.60;99.90
18898;DHT22;9581;49.484;8.556;2023-02-17T08:55:11;10.60;99.90
18898;DHT22;9581;49.484;8.556;2023-02-17T08:57:38;10.50;99.90
18898;DHT22;9581;49.484;8.556;2023-02-17T09:00:08;10.60;99.90
18898;DHT22;9581;49.484;8.556;2023-02-17T09:02:35;10.60;99.90
18898;DHT22;9581;49.484;8.556;2023-02-17T09:05:02;10.60;99.90
18898;DHT22;9581;49.484;8.556;2023-02-17T09:07:29;10.60;99.90
18898;DHT22;9581;49.484;8.556;2023-02-17T09:09:56;10.60;99.90
18898;DHT22;9581;49.484;8.556;2023-02-17T09:12:23;10.60;99.90
18898;DHT22;9581;49.484;8.556;2023-02-17T09:14:49;10.70;99.90
18898;DHT22;9581;49.484;8.556;2023-02-17T09:17:17;10.70;99.90
18898;DHT22;9581;49.484;8.556;2023-02-17T09:19:44;10.80;99.90
18898;DHT22;9581;49.484;8.556;2023-02-17T09:22:11;10.90;99.90
18898;DHT22;9581;49.484;8.556;2023-02-17T09:24:39;10.90;99.90
18898;DHT22;9581;49.484;8.556;2023-02-17T09:27:06;10.90;99.90
18898;DHT22;9581;49.484;8.556;2023-02-17T09:29:32;11.00;99.90
18898;DHT22;9581;49.484;8.556;2023-02-17T09:31:59;11.10;99.90
18898;DHT22;9581;49.484;8.556;2023-02-17T09:34:27;11.10;99.90
18898;DHT22;9581;49.484;8.556;2023-02-17T09:36:54;11.20;99.90
18898;DHT22;9581;49.484;8.556;2023-02-17T09:39:21;11.20;99.90
18898;DHT22;9581;49.484;8.556;2023-02-17T09:41:50;11.20;99.90
18898;DHT22;9581;49.484;8.556;2023-02-17T09:44:21;11.20;99.90
18898;DHT22;9581;49.484;8.556;2023-02-17T09:46:54;11.20;99.90
18898;DHT22;9581;49.484;8.556;2023-02-17T09:49:24;11.10;99.90
18898;DHT22;9581;49.484;8.556;2023-02-17T09:51:59;11.10;99.90
18898;DHT22;9581;49.484;8.556;2023-02-17T09:54:31;11.10;99.90
18898;DHT22;9581;49.484;8.556;2023-02-17T09:57:02;11.10;99.90
18898;DHT22;9581;49.484;8.556;2023-02-17T09:59:34;11.10;99.90
18898;DHT22;9581;49.484;8.556;2023-02-17T10:02:06;11.20;99.90
18898;DHT22;9581;49.484;8.556;2023-02-17T10:04:39;11.20;99.90
18898;DHT22;9581;49.484;8.556;2023-02-17T10:07:12;11.20;99.90
18898;DHT22;9581;49.484;8.556;2023-02-17T10:09:46;11.20;99.90
18898;DHT22;9581;49.484;8.556;2023-02-17T10:12:17;11.30;99.90
18898;DHT22;9581;49.484;8.556;2023-02-17T10:14:48;11.30;99.90
18898;DHT22;9581;49.484;8.556;2023-02-17T10:17:21;11.30;99.90
18898;DHT22;9581;49.484;8.556;2023-02-17T10:19:54;11.30;99.90
18898;DHT22;9581;49.484;8.556;2023-02-17T10:22:25;11.40;99.90
18898;DHT22;9581;49.484;8.556;2023-02-17T10:24:52;11.40;99.90
18898;DHT22;9581;49.484;8.556;2023-02-17T10:27:29;11.50;99.90
18898;DHT22;9581;49.484;8.556;2023-02-17T10:30:07;11.50;99.90
18898;DHT22;9581;49.484;8.556;2023-02-17T10:32:53;11.60;99.90
18898;DHT22;9581;49.484;8.556;2023-02-17T10:38:32;11.60;99.90
18898;DHT22;9581;49.484;8.556;2023-02-17T10:41:10;11.60;99.90
18898;DHT22;9581;49.484;8.556;2023-02-17T10:43:38;11.60;99.90
18898;DHT22;9581;49.484;8.556;2023-02-17T10:46:07;11.70;99.90
18898;DHT22;9581;49.484;8.556;2023-02-17T10:48:37;11.70;99.90
18898;DHT22;9581;49.484;8.556;2023-02-17T10:51:05;11.70;99.90
18898;DHT22;9581;49.484;8.556;2023-02-17T10:53:36;11.90;99.90
18898;DHT22;9581;49.484;8.556;2023-02-17T10:56:08;11.90;99.90
18898;DHT22;9581;49.484;8.556;2023-02-17T10:58:38;12.00;99.90
18898;DHT22;9581;49.484;8.556;2023-02-17T11:01:06;12.10;99.90
18898;DHT22;9581;49.484;8.556;2023-02-17T11:03:33;12.20;99.90
18898;DHT22;9581;49.484;8.556;2023-02-17T11:06:03;12.20;99.90
18898;DHT22;9581;49.484;8.556;2023-02-17T11:08:36;12.30;99.90
18898;DHT22;9581;49.484;8.556;2023-02-17T11:11:04;12.20;99.90
18898;DHT22;9581;49.484;8.556;2023-02-17T11:13:35;12.20;99.90
18898;DHT22;9581;49.484;8.556;2023-02-17T11:16:03;12.20;99.90
18898;DHT22;9581;49.484;8.556;2023-02-17T11:18:32;12.20;99.90
18898;DHT22;9581;49.484;8.556;2023-02-17T11:21:02;12.20;99.90
18898;DHT22;9581;49.484;8.556;2023-02-17T11:23:29;12.20;99.90
18898;DHT22;9581;49.484;8.556;2023-02-17T11:26:00;12.30;99.90
18898;DHT22;9581;49.484;8.556;2023-02-17T11:28:28;12.30;99.90
18898;DHT22;9581;49.484;8.556;2023-02-17T11:30:57;12.30;99.90
18898;DHT22;9581;49.484;8.556;2023-02-17T11:33:30;12.30;99.90
18898;DHT22;9581;49.484;8.556;2023-02-17T11:35:58;12.40;99.90
18898;DHT22;9581;49.484;8.556;2023-02-17T11:38:26;12.50;99.90
18898;DHT22;9581;49.484;8.556;2023-02-17T11:40:56;12.50;99.90
18898;DHT22;9581;49.484;8.556;2023-02-17T11:43:25;12.60;99.90
18898;DHT22;9581;49.484;8.556;2023-02-17T11:46:10;12.60;99.90
18898;DHT22;9581;49.484;8.556;2023-02-17T11:48:56;12.60;99.90
18898;DHT22;9581;49.484;8.556;2023-02-17T11:51:34;12.50;99.90
18898;DHT22;9581;49.484;8.556;2023-02-17T11:54:13;12.60;99.90
18898;DHT22;9581;49.484;8.556;2023-02-17T11:56:46;12.60;99.90
18898;DHT22;9581;49.484;8.556;2023-02-17T11:59:33;12.70;99.90
18898;DHT22;9581;49.484;8.556;2023-02-17T12:02:14;12.60;99.90
18898;DHT22;9581;49.484;8.556;2023-02-17T12:04:51;12.70;99.90
18898;DHT22;9581;49.484;8.556;2023-02-17T12:07:38;12.70;99.90
18898;DHT22;9581;49.484;8.556;2023-02-17T12:10:18;12.60;99.90
18898;DHT22;9581;49.484;8.556;2023-02-17T12:12:57;12.60;99.90
18898;DHT22;9581;49.484;8.556;2023-02-17T12:15:51;12.60;99.90
18898;DHT22;9581;49.484;8.556;2023-02-17T12:18:32;12.60;99.90
18898;DHT22;9581;49.484;8.556;2023-02-17T12:21:08;12.70;99.90
18898;DHT22;9581;49.484;8.556;2023-02-17T12:23:59;12.70;99.90
18898;DHT22;9581;49.484;8.556;2023-02-17T12:26:35;12.70;99.90
18898;DHT22;9581;49.484;8.556;2023-02-17T12:29:14;12.70;99.90
18898;DHT22;9581;49.484;8.556;2023-02-17T12:31:52;12.70;99.90
18898;DHT22;9581;49.484;8.556;2023-02-17T12:34:27;12.70;99.90
18898;DHT22;9581;49.484;8.556;2023-02-17T12:36:55;12.70;99.90
18898;DHT22;9581;49.484;8.556;2023-02-17T12:39:25;12.70;99.90
18898;DHT22;9581;49.484;8.556;2023-02-17T12:41:57;12.70;99.90
18898;DHT22;9581;49.484;8.556;2023-02-17T12:44:27;12.80;99.90
18898;DHT22;9581;49.484;8.556;2023-02-17T12:47:00;12.80;99.90
18898;DHT22;9581;49.484;8.556;2023-02-17T12:49:33;12.80;99.90
18898;DHT22;9581;49.484;8.556;2023-02-17T12:52:07;12.80;99.90
18898;DHT22;9581;49.484;8.556;2023-02-17T12:54:38;12.80;99.90
18898;DHT22;9581;49.484;8.556;2023-02-17T12:57:13;12.90;99.90
18898;DHT22;9581;49.484;8.556;2023-02-17T12:59:42;12.90;99.90
18898;DHT22;9581;49.484;8.556;2023-02-17T13:02:12;12.90;99.90
18898;DHT22;9581;49.484;8.556;2023-02-17T13:04:41;13.10;99.90
18898;DHT22;9581;49.484;8.556;2023-02-17T13:10:20;13.20;99.90
18898;DHT22;9581;49.484;8.556;2023-02-17T13:12:57;13.20;99.90
18898;DHT22;9581;49.484;8.556;2023-02-17T13:15:32;13.20;99.90
18898;DHT22;9581;49.484;8.556;2023-02-17T13:18:03;13.20;99.90
18898;DHT22;9581;49.484;8.556;2023-02-17T13:20:42;13.20;99.90
18898;DHT22;9581;49.484;8.556;2023-02-17T13:23:27;13.10;99.90
18898;DHT22;9581;49.484;8.556;2023-02-17T13:26:13;13.00;99.90
18898;DHT22;9581;49.484;8.556;2023-02-17T13:28:42;13.00;99.90
18898;DHT22;9581;49.484;8.556;2023-02-17T13:31:12;13.00;99.90
18898;DHT22;9581;49.484;8.556;2023-02-17T13:33:45;13.00;99.90
18898;DHT22;9581;49.484;8.556;2023-02-17T13:36:18;13.00;99.90
18898;DHT22;9581;49.484;8.556;2023-02-17T13:38:57;12.90;99.90
18898;DHT22;9581;49.484;8.556;2023-02-17T13:41:27;12.90;99.90
18898;DHT22;9581;49.484;8.556;2023-02-17T13:43:54;12.90;99.90
18898;DHT22;9581;49.484;8.556;2023-02-17T13:46:22;12.90;99.90
18898;DHT22;9581;49.484;8.556;2023-02-17T13:49:00;12.90;99.90
18898;DHT22;9581;49.484;8.556;2023-02-17T13:51:29;12.80;99.90
18898;DHT22;9581;49.484;8.556;2023-02-17T13:54:03;12.80;99.90
18898;DHT22;9581;49.484;8.556;2023-02-17T13:56:30;12.80;99.90
18898;DHT22;9581;49.484;8.556;2023-02-17T13:59:06;12.80;99.90
18898;DHT22;9581;49.484;8.556;2023-02-17T14:01:36;12.70;99.90
18898;DHT22;9581;49.484;8.556;2023-02-17T14:04:17;12.70;99.90
18898;DHT22;9581;49.484;8.556;2023-02-17T14:06:45;12.60;99.90
18898;DHT22;9581;49.484;8.556;2023-02-17T14:09:19;12.60;99.90
18898;DHT22;9581;49.484;8.556;2023-02-17T14:11:47;12.70;99.90
18898;DHT22;9581;49.484;8.556;2023-02-17T14:14:14;12.70;99.90
18898;DHT22;9581;49.484;8.556;2023-02-17T14:16:42;12.70;99.90
18898;DHT22;9581;49.484;8.556;2023-02-17T14:19:13;12.70;99.90
18898;DHT22;9581;49.484;8.556;2023-02-17T14:21:42;12.80;99.90
18898;DHT22;9581;49.484;8.556;2023-02-17T14:24:24;12.90;99.90
18898;DHT22;9581;49.484;8.556;2023-02-17T14:26:58;12.90;99.90
18898;DHT22;9581;49.484;8.556;2023-02-17T14:29:25;12.80;99.90
18898;DHT22;9581;49.484;8.556;2023-02-17T14:32:03;12.80;99.90
18898;DHT22;9581;49.484;8.556;2023-02-17T14:34:32;12.80;99.90
18898;DHT22;9581;49.484;8.556;2023-02-17T14:37:07;12.80;99.90
18898;DHT22;9581;49.484;8.556;2023-02-17T14:39:34;12.80;99.90
18898;DHT22;9581;49.484;8.556;2023-02-17T14:42:00;12.70;99.90
18898;DHT22;9581;49.484;8.556;2023-02-17T14:44:27;12.80;99.90
18898;DHT22;9581;49.484;8.556;2023-02-17T14:46:54;12.70;99.90
18898;DHT22;9581;49.484;8.556;2023-02-17T14:49:21;12.70;99.90
18898;DHT22;9581;49.484;8.556;2023-02-17T14:51:49;12.80;99.90
18898;DHT22;9581;49.484;8.556;2023-02-17T14:54:17;12.70;99.90
18898;DHT22;9581;49.484;8.556;2023-02-17T14:56:47;12.60;99.90
18898;DHT22;9581;49.484;8.556;2023-02-17T14:59:14;12.60;99.90
18898;DHT22;9581;49.484;8.556;2023-02-17T15:01:41;12.60;99.90
18898;DHT22;9581;49.484;8.556;2023-02-17T15:04:08;12.50;99.90
18898;DHT22;9581;49.484;8.556;2023-02-17T15:06:38;12.50;99.90
18898;DHT22;9581;49.484;8.556;2023-02-17T15:09:10;12.40;99.90
18898;DHT22;9581;49.484;8.556;2023-02-17T15:11:38;12.40;99.90
18898;DHT22;9581;49.484;8.556;2023-02-17T15:14:12;12.40;99.90
18898;DHT22;9581;49.484;8.556;2023-02-17T15:16:39;12.40;99.90
18898;DHT22;9581;49.484;8.556;2023-02-17T15:19:06;12.30;99.90
18898;DHT22;9581;49.484;8.556;2023-02-17T15:21:35;12.30;99.90
18898;DHT22;9581;49.484;8.556;2023-02-17T15:24:04;12.30;99.90
18898;DHT22;9581;49.484;8.556;2023-02-17T15:26:33;12.30;99.90
18898;DHT22;9581;49.484;8.556;2023-02-17T15:29:00;12.20;99.90
18898;DHT22;9581;49.484;8.556;2023-02-17T15:31:28;12.20;99.90
18898;DHT22;9581;49.484;8.556;2023-02-17T15:33:57;12.20;99.90
18898;DHT22;9581;49.484;8.556;2023-02-17T15:36:26;12.20;99.90
18898;DHT22;9581;49.484;8.556;2023-02-17T15:38:53;12.10;99.90
18898;DHT22;9581;49.484;8.556;2023-02-17T15:41:22;12.10;99.90
18898;DHT22;9581;49.484;8.556;2023-02-17T15:43:51;12.10;99.90
18898;DHT22;9581;49.484;8.556;2023-02-17T15:46:20;12.10;99.90
18898;DHT22;9581;49.484;8.556;2023-02-17T15:48:48;12.00;99.90
18898;DHT22;9581;49.484;8.556;2023-02-17T15:51:18;12.00;99.90
18898;DHT22;9581;49.484;8.556;2023-02-17T15:53:45;12.00;99.90
18898;DHT22;9581;49.484;8.556;2023-02-17T15:56:14;12.00;99.90
18898;DHT22;9581;49.484;8.556;2023-02-17T15:58:42;12.00;99.90
18898;DHT22;9581;49.484;8.556;2023-02-17T16:01:16;12.00;99.90
18898;DHT22;9581;49.484;8.556;2023-02-17T16:03:45;12.00;99.90
18898;DHT22;9581;49.484;8.556;2023-02-17T16:06:12;12.00;99.90
18898;DHT22;9581;49.484;8.556;2023-02-17T16:08:39;12.00;99.90
18898;DHT22;9581;49.484;8.556;2023-02-17T16:11:08;11.90;99.90
18898;DHT22;9581;49.484;8.556;2023-02-17T16:13:35;12.00;99.90